Split, Croatia

7:52 AM CEST on September 04, 2015 (GMT +0200)
Solin, Centre | | Change Station
CLOSE
Current Station
Personal Weather Station
Location: Solin, SPLITSKO-DALMATINSKA ┼żUPANIJA
Elevation: 26 ft
Nearby Weather Stations

Elev 26 ft 43.54 °N, 16.49 °E | Updated 2 minutes ago

Partly Cloudy
Partly Cloudy
73.2 °F
Feels Like 74 °F
N
0.0
Wind Variable Wind from ENE
Gusts 0.0 mph

Today
High -- | Low -- °F
--% Chance of Precip.
Yesterday
High -- | Low -- °F
Precip. -- in
6:20 AM 7:25 PM
Waning Gibbous, 63% visible
Pressure 29.92 in
Visibility 6.2 miles
Clouds Few 2000 ft
Heat Index 74 °F
Dew Point 66 °F
Humidity 79%
Rainfall 0.00 in
Snow Depth Not available.
UV 1 out of 12
Pollen Not available.
Air Quality Not available.
Flu Activity Not available.
METAR LDSP 040530Z 00000KT 9999 FEW020 23/22 Q1013 NOSIG
Pressure 29.92 in
Visibility 6.2 miles
Clouds Few 2000 ft
Heat Index 74 °F
Dew Point 66 °F
Humidity 79%
Rainfall 0.00 in
Snow Depth Not available.
UV 1 out of 12
Pollen Not available.
Air Quality Not available.
Flu Activity Not available.
METAR LDSP 040530Z 00000KT 9999 FEW020 23/22 Q1013 NOSIG

10-Day Weather Forecast

×

Almanac

Astronomy

Sep. 04, 2015 Rise Set
Actual Time
Civil Twilight
Nautical Twilight
Astronomical Twilight
Moon
Length of Visible Light
Length of Day
Tomorrow will be .
, % of the Moon is Illuminated

Today's Extremes

Country Highs Country Lows

Community

WunderPhotos

Upload Photos

1,852,129 photos uploaded!

WunderBlogs® & News

Nearby

Air Quality

  Air Quality AQ Index Pollutant
Not available.

Snow Depth

Station Depth Elevation

Earthquake Activity

City Distance Mag. Time & Date
Minimum magnitude displayed is 2.5.

Coastal Water Temperatures

Place Temperature

Stations

Nearby Weather Stations

Station Location Temp. Windchill Dew Point Humidity Wind Precip. Elev Updated Type